Time;durP1;ratioP1;P1;durP2;ratioP2;P2;SDS_P1;SDS_P2;PMS_P1;PMS_P2;Temp;Humidity;BMP_temperature;BMP_pressure;BME280_temperature;BME280_humidity;BME280_pressure;Samples;Min_cycle;Max_cycle;Signal;HPM_P1;HPM_P2
2023/05/14 00:00:24;;;;;;;7.15;3.30;;;13.50;99.90;;;;;;12457861;28;20047;-39
2023/05/14 00:06:28;;;;;;;8.00;3.47;;;12.80;99.90;;;;;;12468889;28;20061;-38
2023/05/14 00:12:32;;;;;;;5.38;2.88;;;12.60;99.90;;;;;;12475015;28;20169;-37
2023/05/14 00:18:34;;;;;;;7.82;2.83;;;12.70;99.90;;;;;;12475053;28;20391;-38
2023/05/14 00:24:37;;;;;;;6.43;3.25;;;12.90;99.90;;;;;;12487378;28;20132;-40
2023/05/14 00:30:41;;;;;;;7.40;3.57;;;12.80;99.90;;;;;;12501013;28;20049;-38
2023/05/14 00:36:45;;;;;;;;;;;12.70;99.90;;;;;;12475340;28;20555;-39
2023/05/14 00:42:48;;;;;;;4.65;3.30;;;13.00;99.90;;;;;;12477474;28;20170;-37
2023/05/14 00:48:52;;;;;;;4.90;3.58;;;13.20;99.90;;;;;;12477579;28;20127;-39
2023/05/14 00:54:56;;;;;;;4.30;2.97;;;13.10;99.90;;;;;;12474571;28;20121;-39
2023/05/14 01:00:59;;;;;;;6.07;3.67;;;13.20;99.90;;;;;;12469007;28;20335;-38
2023/05/14 01:07:23;;;;;;;8.07;3.30;;;13.10;99.90;;;;;;12500409;28;20057;-38
2023/05/14 01:13:43;;;;;;;7.80;3.42;;;12.90;99.90;;;;;;12500600;28;20196;-38
2023/05/14 01:19:48;;;;;;;6.13;3.53;;;12.40;99.90;;;;;;12487766;28;20061;-39
2023/05/14 01:25:50;;;;;;;6.25;3.30;;;12.20;99.90;;;;;;12488446;28;20054;-39
2023/05/14 01:31:59;;;;;;;4.30;3.00;;;12.10;99.90;;;;;;12491432;28;20046;-38
2023/05/14 01:38:09;;;;;;;10.10;3.50;;;12.40;99.90;;;;;;12482382;28;20045;-40
2023/05/14 01:44:13;;;;;;;7.00;3.47;;;12.30;99.90;;;;;;12500304;28;20056;-38
2023/05/14 01:50:17;;;;;;;6.13;3.47;;;12.30;99.90;;;;;;12501228;28;20057;-39
2023/05/14 01:56:22;;;;;;;5.05;3.28;;;12.30;99.90;;;;;;12475851;28;20545;-38
2023/05/14 02:02:25;;;;;;;6.57;3.72;;;12.10;99.90;;;;;;12480429;28;20052;-38
2023/05/14 02:08:29;;;;;;;4.30;3.58;;;12.20;99.90;;;;;;12500358;28;20057;-38
2023/05/14 02:14:32;;;;;;;5.07;3.58;;;12.40;99.90;;;;;;12487054;28;20041;-38
2023/05/14 02:20:37;;;;;;;5.68;3.95;;;11.80;99.90;;;;;;12491261;28;20064;-38
2023/05/14 02:26:40;;;;;;;5.07;3.60;;;11.50;99.90;;;;;;12493453;28;20136;-39
2023/05/14 02:32:49;;;;;;;8.48;3.38;;;11.30;99.90;;;;;;12470455;28;20053;-38
2023/05/14 02:38:53;;;;;;;5.88;3.75;;;11.50;99.90;;;;;;12483957;28;20485;-39
2023/05/14 02:44:56;;;;;;;5.37;3.37;;;11.50;99.90;;;;;;12486586;28;20049;-39
2023/05/14 02:51:04;;;;;;;6.57;3.50;;;11.80;99.90;;;;;;12483612;28;20521;-38
2023/05/14 02:57:07;;;;;;;7.18;3.45;;;11.90;99.90;;;;;;12460767;28;20046;-38
2023/05/14 03:03:10;;;;;;;5.50;3.67;;;11.70;99.90;;;;;;12483977;28;20095;-38
2023/05/14 03:09:14;;;;;;;9.10;4.13;;;11.60;99.90;;;;;;12487715;28;20517;-39
2023/05/14 03:15:17;;;;;;;5.32;3.83;;;11.70;99.90;;;;;;12480844;28;20095;-37
2023/05/14 03:21:20;;;;;;;5.00;3.57;;;11.70;99.90;;;;;;12480156;28;20045;-38
2023/05/14 03:27:23;;;;;;;5.38;3.50;;;11.60;99.90;;;;;;12490429;28;20041;-38
2023/05/14 03:33:28;;;;;;;6.70;3.80;;;11.70;99.90;;;;;;12495364;28;20046;-38
2023/05/14 03:39:31;;;;;;;4.93;3.30;;;11.40;99.90;;;;;;12496465;28;20063;-38
2023/05/14 03:45:34;;;;;;;4.97;3.38;;;11.30;99.90;;;;;;12488962;28;20053;-39
2023/05/14 03:51:38;;;;;;;8.55;3.80;;;11.50;99.90;;;;;;12474003;28;20405;-37
2023/05/14 03:57:42;;;;;;;5.00;3.47;;;11.40;99.90;;;;;;12482379;28;20068;-38
2023/05/14 04:03:46;;;;;;;5.75;3.38;;;12.00;99.90;;;;;;12486146;28;20058;-37
2023/05/14 04:09:50;;;;;;;4.40;3.08;;;13.60;99.90;;;;;;12437742;28;20495;-39
2023/05/14 04:15:54;;;;;;;3.78;2.55;;;15.20;99.90;;;;;;12408765;28;20069;-38
2023/05/14 04:21:58;;;;;;;3.72;2.83;;;16.50;99.90;;;;;;12433016;28;20061;-38
2023/05/14 04:28:01;;;;;;;5.93;3.00;;;17.50;99.90;;;;;;12460117;28;20076;-37
2023/05/14 04:34:05;;;;;;;4.80;2.58;;;17.40;99.90;;;;;;12440679;28;20041;-38
2023/05/14 04:40:12;;;;;;;4.63;2.80;;;16.00;99.90;;;;;;12430179;28;20045;-38
2023/05/14 04:46:15;;;;;;;5.55;2.60;;;15.00;99.90;;;;;;12416991;28;20101;-37
2023/05/14 04:52:19;;;;;;;5.43;2.88;;;15.40;99.90;;;;;;12423491;28;20050;-38
2023/05/14 04:58:23;;;;;;;2.70;2.20;;;16.30;99.90;;;;;;12449836;28;20050;-38
2023/05/14 05:04:26;;;;;;;3.78;2.53;;;18.10;99.90;;;;;;12431786;28;20461;-37
2023/05/14 05:10:29;;;;;;;4.93;3.35;;;17.90;99.90;;;;;;12481174;28;20097;-38
2023/05/14 05:16:34;;;;;;;4.45;3.40;;;17.90;99.90;;;;;;12462779;28;20042;-38
2023/05/14 05:22:37;;;;;;;4.72;3.30;;;17.00;99.90;;;;;;12491345;28;20072;-38
2023/05/14 05:28:42;;;;;;;4.32;3.45;;;16.40;99.90;;;;;;12479094;28;20049;-38
2023/05/14 05:34:45;;;;;;;6.28;3.75;;;16.40;99.90;;;;;;12492287;28;20114;-38
2023/05/14 05:40:49;;;;;;;5.38;3.72;;;16.50;99.90;;;;;;12472526;28;20080;-37
2023/05/14 05:46:55;;;;;;;7.68;3.80;;;16.20;99.90;;;;;;12481877;28;20172;-38
2023/05/14 05:53:00;;;;;;;4.60;3.63;;;16.20;99.90;;;;;;12512306;28;20042;-38
2023/05/14 05:59:04;;;;;;;7.60;3.05;;;16.10;99.90;;;;;;12474161;28;20587;-39
2023/05/14 06:05:10;;;;;;;5.38;3.65;;;16.00;99.90;;;;;;12483160;28;20061;-38
2023/05/14 06:11:14;;;;;;;4.72;3.72;;;16.00;99.90;;;;;;12455090;28;20185;-39
2023/05/14 06:17:17;;;;;;;5.45;3.70;;;16.10;99.90;;;;;;12456691;28;20050;-38
2023/05/14 06:23:20;;;;;;;6.07;3.42;;;16.20;99.90;;;;;;12432850;28;20053;-39
2023/05/14 06:29:24;;;;;;;5.35;3.25;;;16.20;99.90;;;;;;12423532;28;20486;-38
2023/05/14 06:35:27;;;;;;;4.35;2.47;;;16.50;99.90;;;;;;12443720;28;20417;-37
2023/05/14 06:41:34;;;;;;;7.60;2.83;;;16.80;99.90;;;;;;12454276;28;20061;-39
2023/05/14 06:47:39;;;;;;;5.80;2.95;;;16.60;99.90;;;;;;12453108;28;20064;-37
2023/05/14 06:53:45;;;;;;;5.72;2.55;;;17.00;99.90;;;;;;12447971;28;20041;-39
2023/05/14 06:59:51;;;;;;;4.25;2.40;;;17.20;99.90;;;;;;12429016;28;20056;-38
2023/05/14 07:05:54;;;;;;;3.33;2.20;;;17.10;99.90;;;;;;12467110;28;20160;-39
2023/05/14 07:11:58;;;;;;;3.83;2.40;;;17.10;99.90;;;;;;12489007;28;20478;-38
2023/05/14 07:18:01;;;;;;;4.55;2.63;;;17.30;99.90;;;;;;12504288;28;20095;-39
2023/05/14 07:24:04;;;;;;;4.47;2.50;;;16.90;99.90;;;;;;12489100;28;20056;-39
2023/05/14 07:30:08;;;;;;;3.10;2.20;;;16.80;99.90;;;;;;12472991;28;20048;-38
2023/05/14 07:36:12;;;;;;;3.88;1.95;;;16.70;99.90;;;;;;12449884;28;20056;-38
2023/05/14 07:42:18;;;;;;;2.95;2.20;;;16.60;99.90;;;;;;12483051;28;20092;-39
2023/05/14 07:48:37;;;;;;;5.63;2.38;;;16.40;99.90;;;;;;12493702;28;20072;-39
2023/05/14 07:54:41;;;;;;;4.82;2.58;;;16.30;99.90;;;;;;12488437;28;20143;-38
2023/05/14 08:00:46;;;;;;;3.83;2.50;;;16.60;99.90;;;;;;12482004;28;20053;-39
2023/05/14 08:06:49;;;;;;;3.85;2.40;;;16.70;99.90;;;;;;12487308;28;20045;-38
2023/05/14 08:12:53;;;;;;;3.95;2.60;;;16.70;99.90;;;;;;12466849;28;20046;-38
2023/05/14 08:18:56;;;;;;;4.97;2.80;;;16.80;99.90;;;;;;12489494;28;20049;-39
2023/05/14 08:25:02;;;;;;;5.23;2.30;;;17.00;99.90;;;;;;12474159;28;20041;-38
2023/05/14 08:31:08;;;;;;;5.28;2.60;;;17.20;99.90;;;;;;12486961;28;20038;-38
2023/05/14 08:37:11;;;;;;;6.05;2.42;;;17.40;99.90;;;;;;12490891;28;20053;-38
2023/05/14 08:43:19;;;;;;;;;;;17.70;99.90;;;;;;12484788;28;20049;-39
2023/05/14 08:49:43;;;;;;;4.22;2.25;;;18.00;99.90;;;;;;12470211;28;19921;-36
2023/05/14 08:55:50;;;;;;;;;;;18.10;99.90;;;;;;12469262;28;20394;-36
2023/05/14 09:02:00;;;;;;;4.05;2.10;;;17.90;99.90;;;;;;12480043;28;19936;-36
2023/05/14 09:08:06;;;;;;;7.00;2.35;;;18.80;99.90;;;;;;12451314;28;20050;-37
2023/05/14 09:14:12;;;;;;;3.35;2.03;;;18.80;99.90;;;;;;12434216;28;20046;-36
2023/05/14 09:20:16;;;;;;;8.98;2.30;;;19.30;99.90;;;;;;12453521;28;20058;-37
2023/05/14 09:26:22;;;;;;;;;;;19.60;99.90;;;;;;12434236;28;20137;-37
2023/05/14 09:32:26;;;;;;;2.80;1.75;;;19.50;99.90;;;;;;12446262;28;19921;-37
2023/05/14 09:38:33;;;;;;;2.65;1.42;;;19.40;99.90;;;;;;12419321;28;20426;-37
2023/05/14 09:44:37;;;;;;;2.88;1.40;;;19.00;99.90;;;;;;12442747;28;20046;-37
2023/05/14 09:50:46;;;;;;;3.03;1.58;;;19.30;99.90;;;;;;12434480;28;20498;-37
2023/05/14 09:56:48;;;;;;;6.25;1.50;;;20.00;99.90;;;;;;12432762;28;20046;-37
2023/05/14 10:02:52;;;;;;;2.58;1.25;;;20.50;99.90;;;;;;12449474;28;20054;-37
2023/05/14 10:09:00;;;;;;;2.60;1.45;;;20.20;99.90;;;;;;12493105;28;20096;-37
2023/05/14 10:15:17;;;;;;;3.08;1.50;;;20.50;99.90;;;;;;12472574;28;20394;-38
2023/05/14 10:21:22;;;;;;;1.88;1.23;;;21.10;99.90;;;;;;12462990;28;20075;-38
2023/05/14 10:27:26;;;;;;;1.90;1.20;;;22.00;99.90;;;;;;12481986;28;20045;-37
2023/05/14 10:33:30;;;;;;;5.72;1.50;;;21.60;99.90;;;;;;12488033;28;20049;-37
2023/05/14 10:39:41;;;;;;;7.90;1.80;;;22.10;99.90;;;;;;12466098;28;20045;-37
2023/05/14 10:45:45;;;;;;;1.92;1.40;;;20.90;99.90;;;;;;12454895;28;21283;-37
2023/05/14 10:51:52;;;;;;;3.35;1.60;;;21.90;99.90;;;;;;12469886;28;20489;-38
2023/05/14 10:58:00;;;;;;;3.17;1.30;;;22.50;99.90;;;;;;12472152;28;20045;-37
2023/05/14 11:04:03;;;;;;;2.78;1.10;;;22.60;99.90;;;;;;12463331;28;20409;-37
2023/05/14 11:10:09;;;;;;;1.63;1.15;;;22.60;99.90;;;;;;12491728;28;20103;-37
2023/05/14 11:16:17;;;;;;;3.67;1.33;;;22.60;99.90;;;;;;12461847;28;20044;-37
2023/05/14 11:22:25;;;;;;;2.08;1.48;;;22.50;99.90;;;;;;12473714;28;20409;-37
2023/05/14 11:28:29;;;;;;;2.53;1.60;;;22.20;99.90;;;;;;12470077;28;20049;-38
2023/05/14 11:34:34;;;;;;;3.40;1.67;;;19.80;99.90;;;;;;12487329;28;20045;-37
2023/05/14 11:40:38;;;;;;;2.13;1.30;;;19.00;99.90;;;;;;12488553;28;20062;-37
2023/05/14 11:46:57;;;;;;;1.95;1.15;;;18.90;99.90;;;;;;12476153;28;20049;-37
2023/05/14 11:53:01;;;;;;;2.55;1.30;;;19.70;99.90;;;;;;12486608;28;20060;-39
2023/05/14 11:59:05;;;;;;;2.00;1.35;;;19.80;99.90;;;;;;12478755;28;20057;-38
2023/05/14 12:05:14;;;;;;;2.20;1.45;;;20.20;99.90;;;;;;12495528;28;20053;-38
2023/05/14 12:11:20;;;;;;;3.10;1.73;;;20.60;99.90;;;;;;12484368;28;20202;-39
2023/05/14 12:17:27;;;;;;;4.15;1.33;;;20.30;99.90;;;;;;12469859;28;20394;-38
2023/05/14 12:23:33;;;;;;;2.38;1.40;;;20.10;99.90;;;;;;12479454;28;20060;-38
2023/05/14 12:29:40;;;;;;;2.28;1.40;;;21.00;99.90;;;;;;12486868;28;20057;-38
2023/05/14 12:35:43;;;;;;;2.35;1.20;;;21.60;99.90;;;;;;12484375;28;20037;-39
2023/05/14 12:41:46;;;;;;;2.67;1.40;;;21.30;99.90;;;;;;12483954;28;20041;-39
2023/05/14 12:47:51;;;;;;;2.20;1.42;;;21.60;99.90;;;;;;12478602;28;20041;-38
2023/05/14 12:53:54;;;;;;;4.85;1.70;;;20.90;99.90;;;;;;12475488;28;20041;-39
2023/05/14 12:59:58;;;;;;;2.13;1.40;;;19.70;99.90;;;;;;12446650;28;20053;-39
2023/05/14 13:06:01;;;;;;;3.58;1.98;;;19.00;99.90;;;;;;12488636;28;20286;-39
2023/05/14 13:12:05;;;;;;;2.55;1.60;;;18.70;99.90;;;;;;12483548;28;20482;-38
2023/05/14 13:18:09;;;;;;;3.22;1.70;;;18.60;99.90;;;;;;12503857;28;20139;-40
2023/05/14 13:24:13;;;;;;;3.45;1.58;;;18.50;99.90;;;;;;12463864;28;20490;-40
2023/05/14 13:30:17;;;;;;;;;;;18.60;99.90;;;;;;12467348;28;20037;-39
2023/05/14 13:36:21;;;;;;;2.35;1.30;;;18.60;99.90;;;;;;12469984;28;19967;-40
2023/05/14 13:42:26;;;;;;;1.80;1.15;;;19.20;99.90;;;;;;12477789;28;20144;-40
2023/05/14 13:48:30;;;;;;;3.75;1.60;;;20.40;99.90;;;;;;12481087;28;20081;-40
2023/05/14 13:54:34;;;;;;;3.70;1.60;;;21.00;99.90;;;;;;12504381;28;20123;-40
2023/05/14 14:00:38;;;;;;;3.50;1.50;;;20.70;99.90;;;;;;12484729;28;20463;-40
2023/05/14 14:06:41;;;;;;;9.15;1.50;;;21.10;99.90;;;;;;12489029;28;20053;-39
2023/05/14 14:12:44;;;;;;;2.20;1.20;;;20.10;99.90;;;;;;12487393;28;20049;-39
2023/05/14 14:18:47;;;;;;;;;;;19.90;99.90;;;;;;12483031;28;20137;-40
2023/05/14 14:24:50;;;;;;;2.63;1.50;;;19.70;99.90;;;;;;12497057;28;19968;-40
2023/05/14 14:30:54;;;;;;;3.20;2.05;;;19.50;99.90;;;;;;12477734;28;20079;-39
2023/05/14 14:36:56;;;;;;;;;;;19.50;99.90;;;;;;12474511;28;20049;-39
2023/05/14 14:43:00;;;;;;;4.18;2.05;;;19.40;99.90;;;;;;12464890;28;19956;-39
2023/05/14 14:49:04;;;;;;;4.07;2.00;;;19.40;99.90;;;;;;12483137;28;20053;-40
2023/05/14 14:55:08;;;;;;;2.83;1.83;;;19.40;99.90;;;;;;12484619;28;20148;-40
2023/05/14 15:01:11;;;;;;;4.80;2.38;;;20.40;99.90;;;;;;12495418;28;20048;-40
2023/05/14 15:07:17;;;;;;;2.97;1.80;;;20.50;99.90;;;;;;12478663;28;20106;-40
2023/05/14 15:13:22;;;;;;;3.63;1.92;;;20.70;99.90;;;;;;12432241;28;20108;-39
2023/05/14 15:19:26;;;;;;;3.60;2.05;;;20.60;99.90;;;;;;12437878;28;20050;-40
2023/05/14 15:25:28;;;;;;;5.30;1.98;;;20.80;99.90;;;;;;12425612;28;20046;-39
2023/05/14 15:31:32;;;;;;;4.03;2.10;;;21.00;99.90;;;;;;12449496;28;20049;-39
2023/05/14 15:37:43;;;;;;;5.45;1.92;;;20.70;99.90;;;;;;12443992;28;20568;-40
2023/05/14 15:43:50;;;;;;;3.95;2.00;;;20.70;99.90;;;;;;12424130;28;20092;-40
2023/05/14 15:49:53;;;;;;;4.53;1.83;;;20.40;99.90;;;;;;12438416;28;20053;-39
2023/05/14 15:55:56;;;;;;;6.15;2.03;;;20.60;99.90;;;;;;12433020;28;20042;-40
2023/05/14 16:01:59;;;;;;;2.77;1.90;;;20.80;99.90;;;;;;12453408;28;20054;-39
2023/05/14 16:08:02;;;;;;;;;;;21.00;99.90;;;;;;12489017;28;20099;-38
2023/05/14 16:14:07;;;;;;;4.28;2.15;;;21.10;99.90;;;;;;12463461;28;20408;-39
2023/05/14 16:20:11;;;;;;;5.18;2.08;;;21.20;99.90;;;;;;12487567;28;20099;-39
2023/05/14 16:26:15;;;;;;;4.07;2.17;;;21.00;99.90;;;;;;12493428;28;20049;-40
2023/05/14 16:32:20;;;;;;;3.92;2.30;;;21.20;99.90;;;;;;12488269;28;20045;-39
2023/05/14 16:38:24;;;;;;;5.72;2.10;;;21.50;99.90;;;;;;12488342;28;20045;-39
2023/05/14 16:44:26;;;;;;;4.93;2.50;;;21.90;99.90;;;;;;12479598;28;20435;-39
2023/05/14 16:50:29;;;;;;;3.95;2.40;;;21.50;99.90;;;;;;12493893;28;20052;-39
2023/05/14 16:56:33;;;;;;;;;;;20.90;99.90;;;;;;12502786;28;20053;-41
2023/05/14 17:02:38;;;;;;;3.80;2.30;;;20.30;99.90;;;;;;12469232;28;19921;-39
2023/05/14 17:08:42;;;;;;;3.55;2.05;;;19.40;99.90;;;;;;12459607;28;20046;-38
2023/05/14 17:14:45;;;;;;;;;;;19.00;99.90;;;;;;12415651;28;20431;-39
2023/05/14 17:20:51;;;;;;;5.03;2.20;;;18.70;99.90;;;;;;12457422;28;19921;-39
2023/05/14 17:26:55;;;;;;;6.05;2.65;;;18.30;99.90;;;;;;12444887;28;20563;-40
2023/05/14 17:33:01;;;;;;;4.40;2.83;;;18.20;99.90;;;;;;12450900;28;20509;-39
2023/05/14 17:39:08;;;;;;;3.78;2.25;;;18.10;99.90;;;;;;12444450;28;20708;-40
2023/05/14 17:45:14;;;;;;;3.30;2.10;;;18.20;99.90;;;;;;12447976;28;20049;-40
2023/05/14 17:51:17;;;;;;;4.53;2.50;;;18.00;99.90;;;;;;12435868;28;20088;-39
2023/05/14 17:57:21;;;;;;;4.07;2.35;;;17.80;99.90;;;;;;12431771;28;20561;-40
2023/05/14 18:03:25;;;;;;;5.53;2.20;;;17.80;99.90;;;;;;12438868;28;20182;-40
2023/05/14 18:09:29;;;;;;;3.08;2.25;;;17.70;99.90;;;;;;12490272;28;20053;-40
2023/05/14 18:15:35;;;;;;;3.20;2.17;;;17.90;99.90;;;;;;12484477;28;20049;-37
2023/05/14 18:21:41;;;;;;;5.25;2.40;;;18.00;99.90;;;;;;12493073;28;20053;-36
2023/05/14 18:27:48;;;;;;;7.53;2.70;;;17.80;99.90;;;;;;12491670;28;20060;-36
2023/05/14 18:33:54;;;;;;;4.15;2.58;;;17.70;99.90;;;;;;12468637;28;20045;-37
2023/05/14 18:40:00;;;;;;;5.43;2.63;;;17.50;99.90;;;;;;12485381;28;20057;-36
2023/05/14 18:46:05;;;;;;;4.60;2.40;;;17.00;99.90;;;;;;12483416;28;20060;-37
2023/05/14 18:52:10;;;;;;;5.55;2.38;;;16.70;99.90;;;;;;12485436;28;20046;-36
2023/05/14 18:58:14;;;;;;;5.55;2.53;;;16.70;99.90;;;;;;12489192;28;20046;-37
2023/05/14 19:04:17;;;;;;;4.35;2.00;;;17.00;99.90;;;;;;12484898;28;20056;-36
2023/05/14 19:10:23;;;;;;;6.03;2.08;;;17.00;99.90;;;;;;12486674;28;20037;-36
2023/05/14 19:16:27;;;;;;;5.43;2.70;;;16.90;99.90;;;;;;12491378;28;20481;-36
2023/05/14 19:22:31;;;;;;;6.13;3.25;;;16.80;99.90;;;;;;12494124;28;20061;-36
2023/05/14 19:28:39;;;;;;;3.87;2.70;;;16.70;99.90;;;;;;12462473;28;20056;-37
2023/05/14 19:34:45;;;;;;;5.00;3.05;;;16.50;99.90;;;;;;12474266;28;20348;-36
2023/05/14 19:40:55;;;;;;;4.70;3.28;;;16.10;99.90;;;;;;12477404;28;20052;-37
2023/05/14 19:46:58;;;;;;;4.95;3.00;;;16.00;99.90;;;;;;12474359;28;20136;-36
2023/05/14 19:53:05;;;;;;;9.73;3.50;;;15.80;99.90;;;;;;12484814;28;20049;-37
2023/05/14 19:59:10;;;;;;;5.75;3.08;;;16.00;99.90;;;;;;12475902;28;20045;-36
2023/05/14 20:05:16;;;;;;;5.45;3.17;;;16.00;99.90;;;;;;12484099;28;20184;-36
2023/05/14 20:11:21;;;;;;;4.30;2.90;;;16.10;99.90;;;;;;12481220;28;20095;-37
2023/05/14 20:17:24;;;;;;;4.78;3.10;;;16.00;99.90;;;;;;12458703;28;20568;-37
2023/05/14 20:23:28;;;;;;;4.50;3.10;;;15.90;99.90;;;;;;12484270;28;20054;-37
2023/05/14 20:29:30;;;;;;;5.32;2.90;;;15.70;99.90;;;;;;12477286;28;20303;-36
2023/05/14 20:35:33;;;;;;;5.25;3.03;;;15.70;99.90;;;;;;12487169;28;20422;-36
2023/05/14 20:41:37;;;;;;;4.30;2.93;;;15.40;99.90;;;;;;12460573;28;20049;-36
2023/05/14 20:47:40;;;;;;;;;;;15.50;99.90;;;;;;12474903;28;20057;-36
2023/05/14 20:53:43;;;;;;;4.70;3.17;;;15.40;99.90;;;;;;12482410;28;19935;-36
2023/05/14 20:59:47;;;;;;;7.07;3.30;;;15.40;99.90;;;;;;12488402;28;20095;-36
2023/05/14 21:05:51;;;;;;;4.97;2.97;;;15.40;99.90;;;;;;12474410;28;20060;-36
2023/05/14 21:11:55;;;;;;;3.90;2.88;;;15.40;99.90;;;;;;12485477;28;20061;-36
2023/05/14 21:17:58;;;;;;;4.63;3.17;;;15.20;99.90;;;;;;12494412;28;20060;-36
2023/05/14 21:24:02;;;;;;;6.75;3.40;;;15.00;99.90;;;;;;12482994;28;20049;-36
2023/05/14 21:30:07;;;;;;;4.30;3.55;;;14.80;99.90;;;;;;12477116;28;20083;-36
2023/05/14 21:36:10;;;;;;;4.38;3.40;;;14.70;99.90;;;;;;12445232;28;20052;-36
2023/05/14 21:42:19;;;;;;;;;;;14.70;99.90;;;;;;12449090;28;20076;-36
2023/05/14 21:48:23;;;;;;;7.38;4.00;;;14.80;99.90;;;;;;12495058;28;20258;-36
2023/05/14 21:54:26;;;;;;;7.25;4.22;;;14.70;99.90;;;;;;12466153;28;20057;-36
2023/05/14 22:00:30;;;;;;;4.30;3.22;;;14.60;99.90;;;;;;12486577;28;20594;-36
2023/05/14 22:06:35;;;;;;;4.38;3.38;;;14.50;99.90;;;;;;12467047;28;20068;-36
2023/05/14 22:12:39;;;;;;;4.40;3.30;;;14.30;99.90;;;;;;12487711;28;20087;-35
2023/05/14 22:18:42;;;;;;;6.28;3.90;;;14.20;99.90;;;;;;12508564;28;20091;-36
2023/05/14 22:24:46;;;;;;;4.97;3.85;;;14.30;99.90;;;;;;12500114;28;20498;-36
2023/05/14 22:30:49;;;;;;;7.82;4.32;;;14.10;99.90;;;;;;12499780;28;20135;-35
2023/05/14 22:36:53;;;;;;;5.82;4.10;;;14.10;99.90;;;;;;12505027;28;20107;-35
2023/05/14 22:42:56;;;;;;;3.83;3.42;;;14.10;99.90;;;;;;12495316;28;20045;-35
2023/05/14 22:49:00;;;;;;;6.28;4.13;;;14.20;99.90;;;;;;12476152;28;20053;-35
2023/05/14 22:55:03;;;;;;;5.25;3.88;;;14.10;99.90;;;;;;12467942;28;20409;-35
2023/05/14 23:01:07;;;;;;;4.75;3.88;;;14.10;99.90;;;;;;12481634;28;20061;-35
2023/05/14 23:07:10;;;;;;;6.47;4.20;;;14.00;99.90;;;;;;12453898;28;20103;-35
2023/05/14 23:13:14;;;;;;;5.18;4.28;;;13.80;99.90;;;;;;12453573;28;20049;-37
2023/05/14 23:19:19;;;;;;;8.43;4.18;;;13.90;99.90;;;;;;12486315;28;20046;-39
2023/05/14 23:25:23;;;;;;;6.82;3.72;;;13.80;99.90;;;;;;12486075;28;20061;-39
2023/05/14 23:31:27;;;;;;;;;;;13.40;99.90;;;;;;12467550;28;20053;-38
2023/05/14 23:37:32;;;;;;;5.97;4.50;;;13.50;99.90;;;;;;12479845;28;19921;-38
2023/05/14 23:43:36;;;;;;;7.82;4.45;;;13.50;99.90;;;;;;12465666;28;20081;-38
2023/05/14 23:49:39;;;;;;;5.13;3.80;;;13.50;99.90;;;;;;12463280;28;20045;-37
2023/05/14 23:55:43;;;;;;;5.15;3.88;;;13.60;99.90;;;;;;12477886;28;20050;-39
